.
WxDataArchive / Data Records for 2007-10-09
2007-10-08 October 2007 2007-10-10

Data Records for Tuesday, 09 October 2007

Time	Temp	Chill	HIndex	Humid	Dewpt	 Wind 	HiWind	WindDir	Rain 	Barom 
-----	----	-----	------	-----	-----	------	------	-------	-----	----- 
00:00	74.6	74.6	74.6	65	62.0	1	2	270	0.00	29.820 
00:05	74.4	74.4	74.4	66	62.3	0	2	315	0.00	29.820 
00:10	74.0	74.0	74.0	67	62.3	1	3	270	0.00	29.820 
00:15	73.9	73.9	73.9	68	62.7	1	2	270	0.00	29.821 
00:20	73.7	73.7	73.7	69	62.9	0	2	270	0.00	29.821 
00:25	73.5	73.5	73.5	69	62.7	1	2	315	0.00	29.826 
00:30	73.3	73.3	73.3	71	63.3	1	3	338	0.00	29.833 
00:35	73.3	73.3	73.3	73	64.1	1	3	315	0.00	29.835 
00:40	73.3	73.3	73.3	75	64.9	1	4	315	0.00	29.836 
00:45	72.8	72.8	72.8	69	62.0	3	7	315	0.00	29.845 
00:50	72.3	72.3	72.3	65	59.9	4	13	292	0.00	29.848 
00:55	71.6	71.6	71.6	64	58.8	4	10	315	0.00	29.853 
01:00	71.3	71.3	71.3	66	59.3	4	13	315	0.00	29.856 
01:05	70.8	70.8	70.8	67	59.3	3	7	292	0.00	29.858 
01:10	70.6	70.6	70.6	68	59.5	2	6	292	0.00	29.865 
01:15	70.3	70.3	70.3	67	58.8	3	7	315	0.00	29.870 
01:20	69.9	69.9	69.9	70	59.7	3	9	315	0.00	29.871 
01:25	69.6	69.6	69.6	71	59.8	2	9	315	0.00	29.869 
01:30	69.4	69.4	69.4	72	60.0	1	4	292	0.00	29.870 
01:35	69.3	69.3	69.3	72	59.9	1	6	315	0.00	29.871 
01:40	68.9	68.9	68.9	72	59.5	2	5	315	0.00	29.876 
01:45	68.4	68.4	68.4	74	59.8	1	4	315	0.00	29.880 
01:50	67.8	67.8	67.8	76	59.9	2	6	315	0.00	29.875 
01:55	67.1	67.1	67.1	76	59.3	3	5	315	0.00	29.879 
02:00	66.8	66.8	66.8	76	59.0	2	6	292	0.00	29.878 
02:05	66.6	66.6	66.6	77	59.2	1	5	338	0.00	29.881 
02:10	66.4	66.4	66.4	78	59.3	1	5	292	0.00	29.884 
02:15	66.3	66.3	66.3	79	59.6	1	7	292	0.00	29.887 
02:20	66.1	66.1	66.1	79	59.4	1	4	315	0.00	29.888 
02:25	65.6	65.6	65.6	80	59.3	2	5	315	0.00	29.886 
02:30	65.3	65.3	65.3	81	59.3	2	5	315	0.00	29.887 
02:35	64.8	64.8	64.8	83	59.5	1	3	315	0.00	29.888 
02:40	64.3	64.3	64.3	86	60.0	1	6	292	0.01	29.889 
02:45	63.7	63.7	63.7	88	60.1	1	2	315	0.00	29.889 
02:50	63.4	63.4	63.4	90	60.4	0	2	292	0.00	29.898 
02:55	63.2	63.2	63.2	91	60.5	1	2	270	0.01	29.904 
03:00	63.1	63.1	63.1	92	60.7	1	3	338	0.01	29.903 
03:05	62.9	62.9	62.9	92	60.5	1	2	292	0.01	29.905 
03:10	62.6	62.6	62.6	92	60.2	1	5	315	0.01	29.902 
03:15	62.3	62.3	62.3	92	59.9	1	3	315	0.00	29.904 
03:20	62.1	62.1	62.1	92	59.7	0	1	315	0.01	29.903 
03:25	62.0	62.0	62.0	93	59.9	0	1	315	0.02	29.899 
03:30	61.5	61.5	61.5	92	59.2	1	3	292	0.01	29.903 
03:35	60.9	60.9	60.9	91	58.3	1	6	292	0.03	29.904 
03:40	60.4	60.4	60.4	91	57.8	0	2	315	0.03	29.896 
03:45	59.8	59.8	59.8	90	56.9	0	1	315	0.00	29.896 
03:50	59.6	59.6	59.6	91	57.0	0	1	315	0.01	29.909 
03:55	59.8	59.8	59.8	92	57.5	0	1	315	0.00	29.920 
04:00	59.8	59.8	59.8	93	57.8	0	1	315	0.00	29.918 
04:05	59.8	59.8	59.8	93	57.8	0	0	---	0.00	29.919 
04:10	59.8	59.8	59.8	93	57.8	0	1	315	0.00	29.921 
04:15	59.6	59.6	59.6	93	57.6	0	0	---	0.00	29.921 
04:20	59.8	59.8	59.8	94	58.1	0	0	---	0.00	29.921 
04:25	59.8	59.8	59.8	94	58.1	0	0	---	0.00	29.914 
04:30	59.9	59.9	59.9	94	58.2	0	1	315	0.00	29.915 
04:35	59.9	59.9	59.9	94	58.2	0	1	315	0.00	29.913 
04:40	59.8	59.8	59.8	94	58.1	0	2	315	0.00	29.912 
04:45	59.5	59.5	59.5	93	57.5	0	1	315	0.00	29.910 
04:50	59.3	59.3	59.3	92	57.0	0	1	315	0.00	29.909 
04:55	59.3	59.3	59.3	91	56.7	0	1	315	0.00	29.910 
05:00	59.2	59.2	59.2	91	56.6	0	1	315	0.00	29.908 
05:05	59.2	59.2	59.2	91	56.6	0	1	315	0.00	29.911 
05:10	59.2	59.2	59.2	90	56.3	0	0	---	0.00	29.912 
05:15	59.0	59.0	59.0	90	56.1	0	1	315	0.00	29.912 
05:20	59.0	59.0	59.0	90	56.1	0	1	315	0.00	29.912 
05:25	59.0	59.0	59.0	89	55.8	0	1	315	0.00	29.912 
05:30	59.0	59.0	59.0	89	55.8	0	1	315	0.00	29.913 
05:35	59.0	59.0	59.0	89	55.8	0	1	315	0.00	29.913 
05:40	58.9	58.9	58.9	89	55.7	0	2	315	0.00	29.915 
05:45	59.0	59.0	59.0	88	55.4	0	1	315	0.00	29.915 
05:50	59.0	59.0	59.0	88	55.4	0	2	315	0.00	29.917 
05:55	59.0	59.0	59.0	88	55.4	0	1	315	0.00	29.922 
06:00	58.9	58.9	58.9	87	55.0	0	1	315	0.00	29.923 
06:05	58.7	58.7	58.7	87	54.8	0	1	315	0.00	29.926 
06:10	58.6	58.6	58.6	87	54.7	0	1	315	0.00	29.926 
06:15	58.6	58.6	58.6	87	54.7	0	1	315	0.00	29.923 
06:20	58.4	58.4	58.4	86	54.2	0	1	315	0.00	29.926 
06:25	58.3	58.3	58.3	87	54.4	0	1	315	0.00	29.928 
06:30	58.1	58.1	58.1	88	54.6	0	0	---	0.00	29.927 
06:35	57.8	57.8	57.8	88	54.3	0	0	---	0.00	29.926 
06:40	57.5	57.5	57.5	89	54.3	0	0	---	0.00	29.928 
06:45	57.3	57.3	57.3	89	54.1	0	1	315	0.00	29.928 
06:50	57.2	57.2	57.2	90	54.3	0	0	---	0.00	29.931 
06:55	57.0	57.0	57.0	90	54.1	0	0	---	0.00	29.930 
07:00	57.0	57.0	57.0	91	54.4	0	1	315	0.00	29.932 
07:05	57.0	57.0	57.0	91	54.4	0	1	315	0.00	29.934 
07:10	57.0	57.0	57.0	91	54.4	0	1	315	0.00	29.932 
07:15	56.9	56.9	56.9	91	54.3	0	1	315	0.00	29.931 
07:20	56.9	56.9	56.9	91	54.3	0	0	---	0.00	29.933 
07:25	56.7	56.7	56.7	91	54.1	0	0	---	0.00	29.933 
07:30	56.6	56.6	56.6	92	54.3	0	0	---	0.00	29.934 
07:35	56.5	56.5	56.5	92	54.2	0	0	---	0.00	29.932 
07:40	56.3	56.3	56.3	92	54.0	0	0	---	0.00	29.935 
07:45	56.3	56.3	56.3	92	54.0	0	0	---	0.00	29.936 
07:50	56.2	56.2	56.2	92	53.9	0	0	---	0.00	29.937 
07:55	56.3	56.3	56.3	93	54.3	0	0	---	0.00	29.940 
08:00	56.6	56.6	56.6	94	54.9	0	0	---	0.00	29.939 
08:05	56.9	56.9	56.9	94	55.2	0	0	---	0.00	29.939 
08:10	57.2	57.2	57.2	94	55.5	0	1	315	0.00	29.938 
08:15	57.6	57.6	57.6	94	55.9	0	1	315	0.00	29.936 
08:20	58.3	58.3	58.3	94	56.6	0	1	315	0.00	29.936 
08:25	58.9	58.9	58.9	93	56.9	0	1	315	0.00	29.936 
08:30	59.3	59.3	59.3	91	56.7	0	1	315	0.00	29.937 
08:35	59.9	59.9	59.9	89	56.6	0	2	315	0.00	29.937 
08:40	60.4	60.4	60.4	87	56.5	1	2	315	0.00	29.938 
08:45	60.9	60.9	60.9	85	56.4	0	1	315	0.00	29.936 
08:50	61.5	61.5	61.5	82	55.9	0	1	315	0.00	29.933 
08:55	62.1	62.1	62.1	81	56.2	1	3	315	0.00	29.934 
09:00	62.6	62.6	62.6	77	55.3	1	3	315	0.00	29.933 
09:05	63.1	63.1	63.1	76	55.4	1	2	315	0.00	29.931 
09:10	63.4	63.4	63.4	75	55.3	1	3	315	0.00	29.932 
09:15	64.0	64.0	64.0	76	56.3	0	1	315	0.00	29.931 
09:20	64.3	64.3	64.3	72	55.1	1	2	315	0.00	29.931 
09:25	64.7	64.7	64.7	71	55.1	1	2	315	0.00	29.929 
09:30	65.0	65.0	65.0	69	54.6	1	3	315	0.00	29.928 
09:35	65.0	65.0	65.0	68	54.2	1	2	315	0.00	29.927 
09:40	65.5	65.5	65.5	68	54.7	1	4	292	0.00	29.927 
09:45	65.8	65.8	65.8	67	54.5	1	2	270	0.00	29.927 
09:50	66.1	66.1	66.1	65	54.0	1	3	248	0.00	29.927 
09:55	66.3	66.3	66.3	62	52.9	2	3	248	0.00	29.927 
10:00	66.6	66.6	66.6	62	53.2	1	4	292	0.00	29.928 
10:05	66.9	66.9	66.9	60	52.6	2	4	315	0.00	29.927 
10:10	67.1	67.1	67.1	59	52.3	1	3	248	0.00	29.925 
10:15	67.6	67.6	67.6	58	52.3	1	2	248	0.00	29.924 
10:20	68.1	68.1	68.1	57	52.3	1	3	248	0.00	29.925 
10:25	68.4	68.4	68.4	57	52.6	1	3	248	0.00	29.926 
10:30	68.4	68.4	68.4	56	52.1	1	3	292	0.00	29.925 
10:35	68.4	68.4	68.4	53	50.6	2	4	248	0.00	29.925 
10:40	68.4	68.4	68.4	57	52.6	2	3	292	0.00	29.926 
10:45	68.8	68.8	68.8	56	52.5	1	3	270	0.00	29.924 
10:50	68.9	68.9	68.9	54	51.6	2	4	248	0.00	29.924 
10:55	68.9	68.9	68.9	54	51.6	2	4	270	0.00	29.925 
11:00	69.4	69.4	69.4	50	49.9	2	4	270	0.00	29.924 
11:05	69.6	69.6	69.6	51	50.7	2	5	315	0.00	29.926 
11:10	69.9	69.9	69.9	53	52.0	2	4	248	0.00	29.924 
11:15	70.1	70.1	70.1	48	49.5	2	5	270	0.00	29.922 
11:20	69.8	69.8	69.8	48	49.2	3	8	270	0.00	29.923 
11:25	69.8	69.8	69.8	47	48.6	3	5	270	0.00	29.922 
11:30	70.1	70.1	70.1	47	48.9	3	5	270	0.00	29.920 
11:35	70.4	70.4	70.4	46	48.6	2	5	248	0.00	29.921 
11:40	70.4	70.4	70.4	47	49.2	2	6	270	0.00	29.919 
11:45	70.4	70.4	70.4	47	49.2	2	5	248	0.00	29.916 
11:50	70.9	70.9	70.9	46	49.1	2	4	248	0.00	29.913 
11:55	70.9	70.9	70.9	46	49.1	2	5	270	0.00	29.911 
12:00	71.5	71.5	71.5	47	50.2	2	4	248	0.00	29.910 
12:05	71.5	71.5	71.5	46	49.6	3	5	270	0.00	29.912 
12:10	71.6	71.6	71.6	43	47.9	2	6	248	0.00	29.909 
12:15	72.0	72.0	72.0	42	47.6	3	6	270	0.00	29.905 
12:20	72.0	72.0	72.0	43	48.3	3	9	248	0.00	29.901 
12:25	72.1	72.1	72.1	41	47.1	2	4	270	0.00	29.900 
12:30	72.1	72.1	72.1	40	46.4	3	7	270	0.00	29.899 
12:35	72.0	72.0	72.0	42	47.6	3	5	270	0.00	29.897 
12:40	72.1	72.1	72.1	41	47.1	2	5	270	0.00	29.897 
12:45	72.0	72.0	72.0	41	47.0	2	6	292	0.00	29.894 
12:50	72.0	72.0	72.0	43	48.3	3	5	270	0.00	29.891 
12:55	72.3	72.3	72.3	41	47.3	3	9	270	0.00	29.888 
13:00	72.3	72.3	72.3	40	46.6	3	5	270	0.00	29.884 
13:05	72.3	72.3	72.3	41	47.3	2	4	315	0.00	29.886 
13:10	72.8	72.8	72.8	39	46.4	3	9	270	0.00	29.881 
13:15	73.0	73.0	73.0	39	46.6	2	5	270	0.00	29.873 
13:20	72.8	72.8	72.8	40	47.1	3	5	270	0.00	29.870 
13:25	73.0	73.0	73.0	39	46.6	2	5	270	0.00	29.869 
13:30	73.0	73.0	73.0	40	47.2	2	6	270	0.00	29.865 
13:35	73.0	73.0	73.0	39	46.6	2	5	270	0.00	29.859 
13:40	73.5	73.5	73.5	39	47.0	1	4	270	0.00	29.856 
13:45	73.9	73.9	73.9	37	46.0	2	4	270	0.00	29.856 
13:50	73.5	73.5	73.5	39	47.0	1	3	315	0.00	29.855 
13:55	73.9	73.9	73.9	37	46.0	2	6	270	0.00	29.854 
14:00	73.7	73.7	73.7	37	45.8	2	4	270	0.00	29.852 
14:05	73.9	73.9	73.9	36	45.2	2	5	270	0.00	29.853 
14:10	73.9	73.9	73.9	35	44.5	3	5	270	0.00	29.852 
14:15	73.9	73.9	73.9	35	44.5	1	4	270	0.00	29.847 
14:20	74.2	74.2	74.2	35	44.8	2	5	270	0.00	29.847 
14:25	74.2	74.2	74.2	34	44.0	2	4	270	0.00	29.845 
14:30	74.0	74.0	74.0	35	44.6	2	4	292	0.00	29.842 
14:35	74.4	74.4	74.4	33	43.4	2	5	292	0.00	29.841 
14:40	74.4	74.4	74.4	36	45.7	2	4	270	0.00	29.840 
14:45	74.7	74.7	74.7	35	45.2	2	5	270	0.00	29.839 
14:50	74.7	74.7	74.7	35	45.2	3	6	270	0.00	29.837 
14:55	74.6	74.6	74.6	33	43.6	2	4	270	0.00	29.836 
15:00	74.7	74.7	74.7	34	44.4	3	7	270	0.00	29.834 
15:05	74.6	74.6	74.6	34	44.4	3	5	270	0.00	29.834 
15:10	74.6	74.6	74.6	35	45.1	3	5	270	0.00	29.831 
15:15	74.0	74.0	74.0	34	43.8	3	6	292	0.00	29.828 
15:20	74.0	74.0	74.0	35	44.6	3	5	315	0.00	29.827 
15:25	74.4	74.4	74.4	36	45.7	2	5	292	0.00	29.826 
15:30	74.6	74.6	74.6	34	44.4	3	5	270	0.00	29.824 
15:35	74.4	74.4	74.4	35	44.9	3	9	270	0.00	29.822 
15:40	74.4	74.4	74.4	35	44.9	2	5	270	0.00	29.817 
15:45	74.2	74.2	74.2	36	45.5	3	6	270	0.00	29.814 
15:50	74.2	74.2	74.2	36	45.5	2	5	270	0.00	29.813 
15:55	74.2	74.2	74.2	35	44.8	3	5	270	0.00	29.811 
16:00	74.0	74.0	74.0	34	43.8	3	7	270	0.00	29.812 
16:05	73.9	73.9	73.9	35	44.5	3	5	270	0.00	29.811 
16:10	74.0	74.0	74.0	34	43.8	3	5	270	0.00	29.811 
16:15	74.2	74.2	74.2	34	44.0	3	6	270	0.00	29.806 
16:20	74.2	74.2	74.2	34	44.0	3	4	270	0.00	29.809 
16:25	74.0	74.0	74.0	35	44.6	2	5	270	0.00	29.807 
16:30	73.9	73.9	73.9	34	43.7	3	6	270	0.00	29.803 
16:35	73.9	73.9	73.9	34	43.7	3	5	270	0.00	29.804 
16:40	73.9	73.9	73.9	35	44.5	2	5	270	0.00	29.802 
16:45	73.9	73.9	73.9	36	45.2	1	6	315	0.00	29.800 
16:50	73.5	73.5	73.5	36	44.9	2	5	248	0.00	29.799 
16:55	73.3	73.3	73.3	36	44.7	2	5	270	0.00	29.797 
17:00	73.2	73.2	73.2	36	44.6	2	6	248	0.00	29.798 
17:05	73.0	73.0	73.0	36	44.5	3	5	270	0.00	29.797 
17:10	73.0	73.0	73.0	37	45.2	2	5	248	0.00	29.797 
17:15	72.8	72.8	72.8	37	45.0	2	5	270	0.00	29.796 
17:20	72.5	72.5	72.5	38	45.4	1	3	248	0.00	29.796 
17:25	72.3	72.3	72.3	38	45.3	1	3	248	0.00	29.795 
17:30	72.1	72.1	72.1	38	45.1	1	4	248	0.00	29.796 
17:35	72.0	72.0	72.0	39	45.7	0	3	248	0.00	29.795 
17:40	71.6	71.6	71.6	39	45.3	1	2	248	0.00	29.792 
17:45	71.3	71.3	71.3	40	45.7	1	3	248	0.00	29.791 
17:50	71.1	71.1	71.1	41	46.2	0	1	248	0.00	29.789 
17:55	70.8	70.8	70.8	41	45.9	0	1	248	0.00	29.789 
18:00	70.6	70.6	70.6	42	46.4	0	2	248	0.00	29.788 
18:05	70.3	70.3	70.3	42	46.1	0	3	248	0.00	29.790 
18:10	69.9	69.9	69.9	43	46.4	0	2	248	0.00	29.790 
18:15	69.6	69.6	69.6	44	46.7	0	1	248	0.00	29.788 
18:20	69.3	69.3	69.3	44	46.4	0	2	248	0.00	29.787 
18:25	68.9	68.9	68.9	45	46.7	0	1	248	0.00	29.787 
18:30	68.6	68.6	68.6	46	47.0	0	1	248	0.00	29.786 
18:35	68.3	68.3	68.3	47	47.3	0	1	248	0.00	29.788 
18:40	67.8	67.8	67.8	47	46.8	0	1	248	0.00	29.788 
18:45	67.6	67.6	67.6	48	47.2	0	1	248	0.00	29.787 
18:50	67.3	67.3	67.3	48	46.9	0	1	248	0.00	29.788 
18:55	67.1	67.1	67.1	49	47.3	0	2	248	0.00	29.787 
19:00	66.9	66.9	66.9	50	47.6	0	1	248	0.00	29.787 
19:05	66.6	66.6	66.6	50	47.4	0	3	248	0.00	29.785 
19:10	66.8	66.8	66.8	50	47.6	1	3	248	0.00	29.783 
19:15	66.8	66.8	66.8	50	47.6	1	3	248	0.00	29.780 
19:20	66.8	66.8	66.8	50	47.6	1	2	248	0.00	29.777 
19:25	66.8	66.8	66.8	50	47.6	1	3	248	0.00	29.775 
19:30	66.8	66.8	66.8	50	47.6	0	3	248	0.00	29.773 
19:35	66.4	66.4	66.4	51	47.7	0	1	248	0.00	29.772 
19:40	66.3	66.3	66.3	52	48.1	0	1	248	0.00	29.773 
19:45	66.0	66.0	66.0	53	48.4	0	1	248	0.00	29.772 
19:50	65.8	65.8	65.8	53	48.2	1	5	248	0.00	29.771 
19:55	65.6	65.6	65.6	54	48.5	0	2	270	0.00	29.770 
20:00	65.5	65.5	65.5	54	48.4	0	3	270	0.00	29.771 
20:05	65.3	65.3	65.3	54	48.2	0	3	225	0.00	29.766 
20:10	65.3	65.3	65.3	54	48.2	0	3	248	0.00	29.767 
20:15	65.5	65.5	65.5	54	48.4	0	2	270	0.00	29.767 
20:20	65.5	65.5	65.5	54	48.4	0	2	270	0.00	29.767 
20:25	65.5	65.5	65.5	54	48.4	1	3	270	0.00	29.766 
20:30	65.5	65.5	65.5	54	48.4	0	2	315	0.00	29.763 
20:35	65.6	65.6	65.6	54	48.5	1	2	292	0.00	29.761 
20:40	65.6	65.6	65.6	53	48.0	1	3	270	0.00	29.760 
20:45	65.8	65.8	65.8	53	48.2	1	3	270	0.00	29.759 
20:50	65.6	65.6	65.6	53	48.0	1	5	270	0.00	29.757 
20:55	65.8	65.8	65.8	53	48.2	1	2	270	0.00	29.758 
21:00	66.0	66.0	66.0	51	47.3	1	4	270	0.00	29.758 
21:05	66.3	66.3	66.3	50	47.1	2	5	270	0.00	29.754 
21:10	66.3	66.3	66.3	50	47.1	1	3	248	0.00	29.759 
21:15	66.0	66.0	66.0	50	46.8	1	3	248	0.00	29.760 
21:20	65.8	65.8	65.8	50	46.6	1	3	270	0.00	29.760 
21:25	65.6	65.6	65.6	50	46.5	1	2	270	0.00	29.757 
21:30	65.6	65.6	65.6	50	46.5	1	3	248	0.00	29.755 
21:35	65.5	65.5	65.5	50	46.4	1	2	248	0.00	29.756 
21:40	65.2	65.2	65.2	51	46.6	0	2	248	0.00	29.754 
21:45	64.8	64.8	64.8	51	46.2	0	2	248	0.00	29.755 
21:50	64.5	64.5	64.5	52	46.5	1	2	270	0.00	29.758 
21:55	64.3	64.3	64.3	52	46.3	1	3	270	0.00	29.762 
22:00	64.2	64.2	64.2	53	46.7	1	4	292	0.00	29.763 
22:05	64.2	64.2	64.2	53	46.7	1	4	315	0.00	29.763 
22:10	64.0	64.0	64.0	54	47.0	2	7	292	0.00	29.764 
22:15	63.7	63.7	63.7	56	47.7	2	4	315	0.00	29.765 
22:20	63.4	63.4	63.4	58	48.4	3	5	292	0.00	29.766 
22:25	62.9	62.9	62.9	59	48.3	1	4	315	0.00	29.765 
22:30	62.4	62.4	62.4	61	48.8	1	4	270	0.00	29.766 
22:35	61.8	61.8	61.8	65	49.9	2	6	315	0.00	29.771 
22:40	61.0	61.0	61.0	67	50.0	2	6	292	0.00	29.774 
22:45	59.9	59.9	59.9	67	48.9	2	7	315	0.00	29.776 
22:50	59.2	59.2	59.2	68	48.6	1	3	315	0.00	29.778 
22:55	58.7	58.7	58.7	68	48.2	1	4	315	0.00	29.779 
23:00	58.3	58.3	58.3	69	48.2	1	5	292	0.00	29.785 
23:05	57.8	57.8	57.8	69	47.7	2	5	292	0.00	29.783 
23:10	57.3	57.3	57.3	69	47.2	2	6	292	0.00	29.784 
23:15	57.0	57.0	57.0	68	46.5	2	4	315	0.00	29.784 
23:20	56.7	56.7	56.7	69	46.6	1	4	270	0.00	29.785 
23:25	56.6	56.6	56.6	69	46.5	1	5	292	0.00	29.784 
23:30	56.3	56.3	56.3	69	46.3	1	4	292	0.00	29.785 
23:35	56.2	56.2	56.2	70	46.5	1	3	292	0.00	29.786 
23:40	55.9	55.9	55.9	70	46.3	0	2	315	0.00	29.786 
23:45	55.7	55.7	55.7	71	46.4	0	2	315	0.00	29.789 
23:50	55.7	55.7	55.7	70	46.1	1	5	292	0.00	29.788 
23:55	55.4	55.4	55.4	70	45.8	0	2	315	0.00	29.787 

CoCoRaHS
IN-AL-39
A2 Web Hosting
Creative Commons License
GoDaddy
Look for:

loaded 2017-12-12 07:13:23 • last modified 2010-11-18 10:43:29
Privacy PolicyDisclaimer
• wx.awcolley.com is powered by PmWiki v.2002016 •
• all content (unless otherwise noted) © 2017 A W Colley